sensor_id;sensor_type;location;lat;lon;timestamp;temperature;humidity
2929;DHT22;1474;51.460;7.150;2023-12-04T00:01:44;16.50;54.30
2929;DHT22;1474;51.460;7.150;2023-12-04T00:04:13;16.60;54.40
2929;DHT22;1474;51.460;7.150;2023-12-04T00:06:41;16.50;54.20
2929;DHT22;1474;51.460;7.150;2023-12-04T00:09:07;16.50;54.10
2929;DHT22;1474;51.460;7.150;2023-12-04T00:11:33;16.50;54.20
2929;DHT22;1474;51.460;7.150;2023-12-04T00:13:59;16.50;54.00
2929;DHT22;1474;51.460;7.150;2023-12-04T00:16:25;16.50;53.80
2929;DHT22;1474;51.460;7.150;2023-12-04T00:18:52;16.50;54.20
2929;DHT22;1474;51.460;7.150;2023-12-04T00:21:18;16.50;54.20
2929;DHT22;1474;51.460;7.150;2023-12-04T00:23:43;16.50;54.10
2929;DHT22;1474;51.460;7.150;2023-12-04T00:26:09;16.50;54.00
2929;DHT22;1474;51.460;7.150;2023-12-04T00:28:38;16.50;54.20
2929;DHT22;1474;51.460;7.150;2023-12-04T00:31:04;16.50;53.40
2929;DHT22;1474;51.460;7.150;2023-12-04T00:33:31;16.50;53.60
2929;DHT22;1474;51.460;7.150;2023-12-04T00:35:58;16.50;54.10
2929;DHT22;1474;51.460;7.150;2023-12-04T00:38:23;16.50;53.80
2929;DHT22;1474;51.460;7.150;2023-12-04T00:40:49;16.50;53.80
2929;DHT22;1474;51.460;7.150;2023-12-04T00:43:16;16.50;53.60
2929;DHT22;1474;51.460;7.150;2023-12-04T00:45:43;16.50;54.00
2929;DHT22;1474;51.460;7.150;2023-12-04T00:48:11;16.50;54.00
2929;DHT22;1474;51.460;7.150;2023-12-04T00:50:39;16.50;54.40
2929;DHT22;1474;51.460;7.150;2023-12-04T00:53:07;16.50;53.60
2929;DHT22;1474;51.460;7.150;2023-12-04T00:55:33;16.50;53.90
2929;DHT22;1474;51.460;7.150;2023-12-04T00:58:01;16.50;53.80
2929;DHT22;1474;51.460;7.150;2023-12-04T01:00:27;16.50;53.90
2929;DHT22;1474;51.460;7.150;2023-12-04T01:02:55;16.50;53.80
2929;DHT22;1474;51.460;7.150;2023-12-04T01:05:21;16.50;53.80
2929;DHT22;1474;51.460;7.150;2023-12-04T01:07:49;16.50;54.30
2929;DHT22;1474;51.460;7.150;2023-12-04T01:10:15;16.50;54.30
2929;DHT22;1474;51.460;7.150;2023-12-04T01:12:42;16.50;54.50
2929;DHT22;1474;51.460;7.150;2023-12-04T01:15:10;16.50;53.90
2929;DHT22;1474;51.460;7.150;2023-12-04T01:17:38;16.50;54.00
2929;DHT22;1474;51.460;7.150;2023-12-04T01:20:06;16.50;55.20
2929;DHT22;1474;51.460;7.150;2023-12-04T01:22:34;16.50;53.80
2929;DHT22;1474;51.460;7.150;2023-12-04T01:25:01;16.50;54.50
2929;DHT22;1474;51.460;7.150;2023-12-04T01:27:29;16.50;54.30
2929;DHT22;1474;51.460;7.150;2023-12-04T01:29:59;16.50;54.10
2929;DHT22;1474;51.460;7.150;2023-12-04T01:32:26;16.50;54.20
2929;DHT22;1474;51.460;7.150;2023-12-04T01:34:52;16.50;53.90
2929;DHT22;1474;51.460;7.150;2023-12-04T01:37:21;16.50;53.80
2929;DHT22;1474;51.460;7.150;2023-12-04T01:39:47;16.50;53.80
2929;DHT22;1474;51.460;7.150;2023-12-04T01:42:14;16.50;54.00
2929;DHT22;1474;51.460;7.150;2023-12-04T01:44:43;16.50;54.20
2929;DHT22;1474;51.460;7.150;2023-12-04T01:47:11;16.50;53.50
2929;DHT22;1474;51.460;7.150;2023-12-04T01:49:40;16.50;53.40
2929;DHT22;1474;51.460;7.150;2023-12-04T01:52:08;16.40;53.40
2929;DHT22;1474;51.460;7.150;2023-12-04T01:54:35;16.40;53.30
2929;DHT22;1474;51.460;7.150;2023-12-04T01:57:04;16.40;53.40
2929;DHT22;1474;51.460;7.150;2023-12-04T01:59:33;16.40;53.70
2929;DHT22;1474;51.460;7.150;2023-12-04T02:02:00;16.40;53.50
2929;DHT22;1474;51.460;7.150;2023-12-04T02:04:31;16.40;53.10
2929;DHT22;1474;51.460;7.150;2023-12-04T02:06:59;16.40;53.70
2929;DHT22;1474;51.460;7.150;2023-12-04T02:09:26;16.40;54.10
2929;DHT22;1474;51.460;7.150;2023-12-04T02:11:55;16.40;53.60
2929;DHT22;1474;51.460;7.150;2023-12-04T02:14:22;16.30;53.70
2929;DHT22;1474;51.460;7.150;2023-12-04T02:16:50;16.40;53.30
2929;DHT22;1474;51.460;7.150;2023-12-04T02:19:22;16.30;53.50
2929;DHT22;1474;51.460;7.150;2023-12-04T02:21:49;16.30;53.30
2929;DHT22;1474;51.460;7.150;2023-12-04T02:24:16;16.40;53.70
2929;DHT22;1474;51.460;7.150;2023-12-04T02:26:55;16.40;53.70
2929;DHT22;1474;51.460;7.150;2023-12-04T02:29:30;16.40;53.60
2929;DHT22;1474;51.460;7.150;2023-12-04T02:32:02;16.40;53.90
2929;DHT22;1474;51.460;7.150;2023-12-04T02:34:32;16.30;53.40
2929;DHT22;1474;51.460;7.150;2023-12-04T02:37:01;16.30;53.30
2929;DHT22;1474;51.460;7.150;2023-12-04T02:39:28;16.30;53.50
2929;DHT22;1474;51.460;7.150;2023-12-04T02:41:54;16.30;53.30
2929;DHT22;1474;51.460;7.150;2023-12-04T02:44:20;16.40;53.80
2929;DHT22;1474;51.460;7.150;2023-12-04T02:46:46;16.40;53.30
2929;DHT22;1474;51.460;7.150;2023-12-04T02:49:13;16.30;54.30
2929;DHT22;1474;51.460;7.150;2023-12-04T02:51:41;16.40;54.00
2929;DHT22;1474;51.460;7.150;2023-12-04T02:54:08;16.40;54.10
2929;DHT22;1474;51.460;7.150;2023-12-04T02:56:35;16.40;53.40
2929;DHT22;1474;51.460;7.150;2023-12-04T02:59:02;16.40;53.60
2929;DHT22;1474;51.460;7.150;2023-12-04T03:01:32;16.40;53.30
2929;DHT22;1474;51.460;7.150;2023-12-04T03:03:59;16.40;53.30
2929;DHT22;1474;51.460;7.150;2023-12-04T03:06:25;16.40;53.30
2929;DHT22;1474;51.460;7.150;2023-12-04T03:08:53;16.40;53.90
2929;DHT22;1474;51.460;7.150;2023-12-04T03:11:20;16.40;53.90
2929;DHT22;1474;51.460;7.150;2023-12-04T03:13:47;16.40;53.90
2929;DHT22;1474;51.460;7.150;2023-12-04T03:16:18;16.40;53.70
2929;DHT22;1474;51.460;7.150;2023-12-04T03:18:45;16.40;53.80
2929;DHT22;1474;51.460;7.150;2023-12-04T03:21:13;16.40;53.60
2929;DHT22;1474;51.460;7.150;2023-12-04T03:23:40;16.40;54.50
2929;DHT22;1474;51.460;7.150;2023-12-04T03:26:08;16.40;54.20
2929;DHT22;1474;51.460;7.150;2023-12-04T03:28:38;16.40;53.60
2929;DHT22;1474;51.460;7.150;2023-12-04T03:31:06;16.40;53.30
2929;DHT22;1474;51.460;7.150;2023-12-04T03:33:33;16.40;54.00
2929;DHT22;1474;51.460;7.150;2023-12-04T03:35:59;16.40;53.90
2929;DHT22;1474;51.460;7.150;2023-12-04T03:38:26;16.30;53.50
2929;DHT22;1474;51.460;7.150;2023-12-04T03:40:52;16.40;53.60
2929;DHT22;1474;51.460;7.150;2023-12-04T03:43:18;16.40;53.80
2929;DHT22;1474;51.460;7.150;2023-12-04T03:45:44;16.40;53.90
2929;DHT22;1474;51.460;7.150;2023-12-04T03:48:11;16.40;53.80
2929;DHT22;1474;51.460;7.150;2023-12-04T03:50:39;16.40;54.50
2929;DHT22;1474;51.460;7.150;2023-12-04T03:53:06;16.40;53.80
2929;DHT22;1474;51.460;7.150;2023-12-04T03:55:31;16.40;54.00
2929;DHT22;1474;51.460;7.150;2023-12-04T03:57:58;16.40;53.80
2929;DHT22;1474;51.460;7.150;2023-12-04T04:00:24;16.40;54.00
2929;DHT22;1474;51.460;7.150;2023-12-04T04:02:50;16.40;53.70
2929;DHT22;1474;51.460;7.150;2023-12-04T04:05:16;16.40;53.80
2929;DHT22;1474;51.460;7.150;2023-12-04T04:07:42;16.40;53.20
2929;DHT22;1474;51.460;7.150;2023-12-04T04:10:08;16.40;53.60
2929;DHT22;1474;51.460;7.150;2023-12-04T04:12:34;16.40;54.20
2929;DHT22;1474;51.460;7.150;2023-12-04T04:15:00;16.40;54.20
2929;DHT22;1474;51.460;7.150;2023-12-04T04:17:26;16.40;53.40
2929;DHT22;1474;51.460;7.150;2023-12-04T04:19:52;16.40;54.00
2929;DHT22;1474;51.460;7.150;2023-12-04T04:22:19;16.40;53.60
2929;DHT22;1474;51.460;7.150;2023-12-04T04:24:46;16.40;53.80
2929;DHT22;1474;51.460;7.150;2023-12-04T04:27:12;16.40;53.80
2929;DHT22;1474;51.460;7.150;2023-12-04T04:29:38;16.40;53.60
2929;DHT22;1474;51.460;7.150;2023-12-04T04:32:04;16.40;53.60
2929;DHT22;1474;51.460;7.150;2023-12-04T04:34:30;16.40;53.90
2929;DHT22;1474;51.460;7.150;2023-12-04T04:36:56;16.40;54.10
2929;DHT22;1474;51.460;7.150;2023-12-04T04:39:22;16.40;54.20
2929;DHT22;1474;51.460;7.150;2023-12-04T04:41:48;16.40;53.90
2929;DHT22;1474;51.460;7.150;2023-12-04T04:44:13;16.40;53.30
2929;DHT22;1474;51.460;7.150;2023-12-04T04:46:39;16.40;53.60
2929;DHT22;1474;51.460;7.150;2023-12-04T04:49:05;16.40;53.70
2929;DHT22;1474;51.460;7.150;2023-12-04T04:51:33;16.40;53.40
2929;DHT22;1474;51.460;7.150;2023-12-04T04:54:00;16.40;53.50
2929;DHT22;1474;51.460;7.150;2023-12-04T04:56:26;16.40;53.60
2929;DHT22;1474;51.460;7.150;2023-12-04T04:58:52;16.40;54.10
2929;DHT22;1474;51.460;7.150;2023-12-04T05:01:18;16.30;54.10
2929;DHT22;1474;51.460;7.150;2023-12-04T05:03:44;16.40;53.80
2929;DHT22;1474;51.460;7.150;2023-12-04T05:06:10;16.40;54.10
2929;DHT22;1474;51.460;7.150;2023-12-04T05:08:36;16.30;53.70
2929;DHT22;1474;51.460;7.150;2023-12-04T05:11:02;16.40;53.30
2929;DHT22;1474;51.460;7.150;2023-12-04T05:13:27;16.40;53.80
2929;DHT22;1474;51.460;7.150;2023-12-04T05:15:53;16.40;53.20
2929;DHT22;1474;51.460;7.150;2023-12-04T05:18:19;16.30;52.80
2929;DHT22;1474;51.460;7.150;2023-12-04T05:20:45;16.30;53.70
2929;DHT22;1474;51.460;7.150;2023-12-04T05:23:10;16.40;53.60
2929;DHT22;1474;51.460;7.150;2023-12-04T05:25:36;16.30;53.10
2929;DHT22;1474;51.460;7.150;2023-12-04T05:28:02;16.30;53.60
2929;DHT22;1474;51.460;7.150;2023-12-04T05:30:29;16.30;52.70
2929;DHT22;1474;51.460;7.150;2023-12-04T05:32:54;16.30;53.00
2929;DHT22;1474;51.460;7.150;2023-12-04T05:35:20;16.30;53.50
2929;DHT22;1474;51.460;7.150;2023-12-04T05:37:46;16.30;52.80
2929;DHT22;1474;51.460;7.150;2023-12-04T05:40:12;16.30;53.50
2929;DHT22;1474;51.460;7.150;2023-12-04T05:42:38;16.30;53.10
2929;DHT22;1474;51.460;7.150;2023-12-04T05:45:04;16.30;53.60
2929;DHT22;1474;51.460;7.150;2023-12-04T05:47:30;16.30;53.10
2929;DHT22;1474;51.460;7.150;2023-12-04T05:49:55;16.30;53.90
2929;DHT22;1474;51.460;7.150;2023-12-04T05:52:21;16.30;53.30
2929;DHT22;1474;51.460;7.150;2023-12-04T05:54:47;16.30;53.20
2929;DHT22;1474;51.460;7.150;2023-12-04T05:57:13;16.30;53.20
2929;DHT22;1474;51.460;7.150;2023-12-04T05:59:39;16.30;52.90
2929;DHT22;1474;51.460;7.150;2023-12-04T06:02:04;16.20;52.60
2929;DHT22;1474;51.460;7.150;2023-12-04T06:04:30;16.30;53.40
2929;DHT22;1474;51.460;7.150;2023-12-04T06:06:56;16.30;53.10
2929;DHT22;1474;51.460;7.150;2023-12-04T06:09:22;16.30;53.50
2929;DHT22;1474;51.460;7.150;2023-12-04T06:11:47;16.20;53.00
2929;DHT22;1474;51.460;7.150;2023-12-04T06:14:13;16.30;53.20
2929;DHT22;1474;51.460;7.150;2023-12-04T06:16:39;16.20;52.90
2929;DHT22;1474;51.460;7.150;2023-12-04T06:19:04;16.20;53.30
2929;DHT22;1474;51.460;7.150;2023-12-04T06:21:31;16.20;53.00
2929;DHT22;1474;51.460;7.150;2023-12-04T06:23:57;16.20;52.70
2929;DHT22;1474;51.460;7.150;2023-12-04T06:26:24;16.20;52.80
2929;DHT22;1474;51.460;7.150;2023-12-04T06:28:50;16.20;53.70
2929;DHT22;1474;51.460;7.150;2023-12-04T06:31:16;16.20;53.10
2929;DHT22;1474;51.460;7.150;2023-12-04T06:33:42;16.20;53.10
2929;DHT22;1474;51.460;7.150;2023-12-04T06:36:09;16.20;52.90
2929;DHT22;1474;51.460;7.150;2023-12-04T06:38:39;16.20;52.90
2929;DHT22;1474;51.460;7.150;2023-12-04T06:41:06;16.20;53.10
2929;DHT22;1474;51.460;7.150;2023-12-04T06:43:33;16.20;53.20
2929;DHT22;1474;51.460;7.150;2023-12-04T06:45:59;16.20;53.20
2929;DHT22;1474;51.460;7.150;2023-12-04T06:48:25;16.20;53.10
2929;DHT22;1474;51.460;7.150;2023-12-04T06:50:51;16.20;52.80
2929;DHT22;1474;51.460;7.150;2023-12-04T06:53:18;16.20;53.60
2929;DHT22;1474;51.460;7.150;2023-12-04T06:55:44;16.20;53.10
2929;DHT22;1474;51.460;7.150;2023-12-04T06:58:10;16.20;53.50
2929;DHT22;1474;51.460;7.150;2023-12-04T07:00:35;16.20;53.30
2929;DHT22;1474;51.460;7.150;2023-12-04T07:03:01;16.20;53.10
2929;DHT22;1474;51.460;7.150;2023-12-04T07:05:28;16.20;53.30
2929;DHT22;1474;51.460;7.150;2023-12-04T07:07:53;16.20;53.40
2929;DHT22;1474;51.460;7.150;2023-12-04T07:10:19;16.20;53.60
2929;DHT22;1474;51.460;7.150;2023-12-04T07:12:45;16.20;53.50
2929;DHT22;1474;51.460;7.150;2023-12-04T07:15:11;16.20;53.70
2929;DHT22;1474;51.460;7.150;2023-12-04T07:17:38;16.20;53.20
2929;DHT22;1474;51.460;7.150;2023-12-04T07:20:05;16.30;53.80
2929;DHT22;1474;51.460;7.150;2023-12-04T07:22:34;16.20;53.50
2929;DHT22;1474;51.460;7.150;2023-12-04T07:25:00;16.20;53.10
2929;DHT22;1474;51.460;7.150;2023-12-04T07:27:26;16.20;53.50
2929;DHT22;1474;51.460;7.150;2023-12-04T07:29:52;16.30;53.50
2929;DHT22;1474;51.460;7.150;2023-12-04T07:32:17;16.20;53.20
2929;DHT22;1474;51.460;7.150;2023-12-04T07:34:43;16.20;53.30
2929;DHT22;1474;51.460;7.150;2023-12-04T07:37:09;16.20;53.60
2929;DHT22;1474;51.460;7.150;2023-12-04T07:39:35;16.20;53.70
2929;DHT22;1474;51.460;7.150;2023-12-04T07:42:01;16.20;54.20
2929;DHT22;1474;51.460;7.150;2023-12-04T07:44:27;16.20;53.20
2929;DHT22;1474;51.460;7.150;2023-12-04T07:46:53;16.20;53.10
2929;DHT22;1474;51.460;7.150;2023-12-04T07:49:19;16.20;52.80
2929;DHT22;1474;51.460;7.150;2023-12-04T07:51:44;16.20;53.10
2929;DHT22;1474;51.460;7.150;2023-12-04T07:54:10;16.20;53.20
2929;DHT22;1474;51.460;7.150;2023-12-04T07:56:36;16.20;53.40
2929;DHT22;1474;51.460;7.150;2023-12-04T07:59:02;16.20;53.30
2929;DHT22;1474;51.460;7.150;2023-12-04T08:01:28;16.20;53.30
2929;DHT22;1474;51.460;7.150;2023-12-04T08:03:54;16.20;53.50
2929;DHT22;1474;51.460;7.150;2023-12-04T08:06:19;16.20;53.40
2929;DHT22;1474;51.460;7.150;2023-12-04T08:08:45;16.20;54.30
2929;DHT22;1474;51.460;7.150;2023-12-04T08:11:11;16.20;52.90
2929;DHT22;1474;51.460;7.150;2023-12-04T08:13:39;16.20;53.90
2929;DHT22;1474;51.460;7.150;2023-12-04T08:16:05;16.20;54.20
2929;DHT22;1474;51.460;7.150;2023-12-04T08:18:38;16.20;54.20
2929;DHT22;1474;51.460;7.150;2023-12-04T08:21:04;16.20;54.10
2929;DHT22;1474;51.460;7.150;2023-12-04T08:23:30;16.20;53.40
2929;DHT22;1474;51.460;7.150;2023-12-04T08:25:56;16.20;52.90
2929;DHT22;1474;51.460;7.150;2023-12-04T08:28:22;16.20;52.40
2929;DHT22;1474;51.460;7.150;2023-12-04T08:30:48;16.10;51.60
2929;DHT22;1474;51.460;7.150;2023-12-04T08:33:14;16.10;51.90
2929;DHT22;1474;51.460;7.150;2023-12-04T08:35:40;16.10;51.90
2929;DHT22;1474;51.460;7.150;2023-12-04T08:38:06;16.10;51.80
2929;DHT22;1474;51.460;7.150;2023-12-04T08:40:32;16.00;51.80
2929;DHT22;1474;51.460;7.150;2023-12-04T08:42:57;16.10;52.00
2929;DHT22;1474;51.460;7.150;2023-12-04T08:45:23;16.00;52.00
2929;DHT22;1474;51.460;7.150;2023-12-04T08:47:49;16.10;51.90
2929;DHT22;1474;51.460;7.150;2023-12-04T08:50:15;16.10;52.00
2929;DHT22;1474;51.460;7.150;2023-12-04T08:52:41;16.10;52.30
2929;DHT22;1474;51.460;7.150;2023-12-04T08:55:09;16.10;52.10
2929;DHT22;1474;51.460;7.150;2023-12-04T08:57:35;16.10;52.90
2929;DHT22;1474;51.460;7.150;2023-12-04T09:00:01;16.10;52.80
2929;DHT22;1474;51.460;7.150;2023-12-04T09:02:29;16.10;52.80
2929;DHT22;1474;51.460;7.150;2023-12-04T09:04:56;16.10;52.40
2929;DHT22;1474;51.460;7.150;2023-12-04T09:07:21;16.10;52.30
2929;DHT22;1474;51.460;7.150;2023-12-04T09:09:47;16.10;52.30
2929;DHT22;1474;51.460;7.150;2023-12-04T09:12:13;16.10;52.50
2929;DHT22;1474;51.460;7.150;2023-12-04T09:14:39;16.20;53.10
2929;DHT22;1474;51.460;7.150;2023-12-04T09:17:05;15.00;43.80
2929;DHT22;1474;51.460;7.150;2023-12-04T09:19:31;14.30;49.10
2929;DHT22;1474;51.460;7.150;2023-12-04T09:21:57;14.80;50.50
2929;DHT22;1474;51.460;7.150;2023-12-04T09:24:23;15.10;51.40
2929;DHT22;1474;51.460;7.150;2023-12-04T09:26:49;15.30;52.10
2929;DHT22;1474;51.460;7.150;2023-12-04T09:29:15;15.50;52.90
2929;DHT22;1474;51.460;7.150;2023-12-04T09:31:42;15.70;52.90
2929;DHT22;1474;51.460;7.150;2023-12-04T09:34:07;15.80;52.80
2929;DHT22;1474;51.460;7.150;2023-12-04T09:36:34;16.00;53.10
2929;DHT22;1474;51.460;7.150;2023-12-04T09:39:00;16.10;53.00
2929;DHT22;1474;51.460;7.150;2023-12-04T09:41:26;16.20;52.90
2929;DHT22;1474;51.460;7.150;2023-12-04T09:43:53;16.40;53.00
2929;DHT22;1474;51.460;7.150;2023-12-04T09:46:19;16.50;53.10
2929;DHT22;1474;51.460;7.150;2023-12-04T09:48:45;16.60;52.70
2929;DHT22;1474;51.460;7.150;2023-12-04T09:51:12;16.70;52.80
2929;DHT22;1474;51.460;7.150;2023-12-04T09:53:41;16.80;52.90
2929;DHT22;1474;51.460;7.150;2023-12-04T09:56:07;16.90;52.80
2929;DHT22;1474;51.460;7.150;2023-12-04T09:58:37;16.90;52.80
2929;DHT22;1474;51.460;7.150;2023-12-04T10:01:06;17.00;52.90
2929;DHT22;1474;51.460;7.150;2023-12-04T10:03:34;17.10;52.80
2929;DHT22;1474;51.460;7.150;2023-12-04T10:06:01;17.10;52.80
2929;DHT22;1474;51.460;7.150;2023-12-04T10:08:27;17.30;52.80
2929;DHT22;1474;51.460;7.150;2023-12-04T10:10:53;17.30;52.70
2929;DHT22;1474;51.460;7.150;2023-12-04T10:13:19;17.40;52.60
2929;DHT22;1474;51.460;7.150;2023-12-04T10:15:49;17.40;52.50
2929;DHT22;1474;51.460;7.150;2023-12-04T10:18:27;17.50;52.40
2929;DHT22;1474;51.460;7.150;2023-12-04T10:20:56;17.50;52.30
2929;DHT22;1474;51.460;7.150;2023-12-04T10:23:23;17.60;52.20
2929;DHT22;1474;51.460;7.150;2023-12-04T10:26:02;17.70;52.20
2929;DHT22;1474;51.460;7.150;2023-12-04T10:28:28;17.80;52.10
2929;DHT22;1474;51.460;7.150;2023-12-04T10:30:55;17.80;52.00
2929;DHT22;1474;51.460;7.150;2023-12-04T10:33:21;17.90;51.90
2929;DHT22;1474;51.460;7.150;2023-12-04T10:35:51;18.00;51.90
2929;DHT22;1474;51.460;7.150;2023-12-04T10:38:18;18.00;51.80
2929;DHT22;1474;51.460;7.150;2023-12-04T10:40:44;18.10;51.70
2929;DHT22;1474;51.460;7.150;2023-12-04T10:43:17;18.10;51.50
2929;DHT22;1474;51.460;7.150;2023-12-04T10:45:48;18.20;51.60
2929;DHT22;1474;51.460;7.150;2023-12-04T10:48:16;18.20;51.50
2929;DHT22;1474;51.460;7.150;2023-12-04T10:50:44;18.30;51.40
2929;DHT22;1474;51.460;7.150;2023-12-04T10:53:16;18.30;51.40
2929;DHT22;1474;51.460;7.150;2023-12-04T10:55:43;18.40;51.30
2929;DHT22;1474;51.460;7.150;2023-12-04T10:58:14;18.50;51.30
2929;DHT22;1474;51.460;7.150;2023-12-04T11:00:48;18.50;51.80
2929;DHT22;1474;51.460;7.150;2023-12-04T11:03:21;18.50;51.20
2929;DHT22;1474;51.460;7.150;2023-12-04T11:05:59;18.60;51.10
2929;DHT22;1474;51.460;7.150;2023-12-04T11:08:29;18.60;51.00
2929;DHT22;1474;51.460;7.150;2023-12-04T11:11:03;18.70;51.60
2929;DHT22;1474;51.460;7.150;2023-12-04T11:13:35;18.80;50.90
2929;DHT22;1474;51.460;7.150;2023-12-04T11:19:54;18.90;50.70
2929;DHT22;1474;51.460;7.150;2023-12-04T11:22:25;19.00;50.70
2929;DHT22;1474;51.460;7.150;2023-12-04T11:32:13;19.10;50.60
2929;DHT22;1474;51.460;7.150;2023-12-04T11:34:48;19.10;50.80
2929;DHT22;1474;51.460;7.150;2023-12-04T11:37:15;19.10;50.80
2929;DHT22;1474;51.460;7.150;2023-12-04T11:39:41;19.20;50.80
2929;DHT22;1474;51.460;7.150;2023-12-04T11:42:07;19.20;50.60
2929;DHT22;1474;51.460;7.150;2023-12-04T11:44:33;19.30;50.70
2929;DHT22;1474;51.460;7.150;2023-12-04T11:47:05;19.30;50.60
2929;DHT22;1474;51.460;7.150;2023-12-04T11:49:32;19.40;50.60
2929;DHT22;1474;51.460;7.150;2023-12-04T11:51:59;19.40;50.70
2929;DHT22;1474;51.460;7.150;2023-12-04T11:54:27;19.40;50.60
2929;DHT22;1474;51.460;7.150;2023-12-04T11:59:38;19.50;50.60
2929;DHT22;1474;51.460;7.150;2023-12-04T12:02:08;19.50;50.60
2929;DHT22;1474;51.460;7.150;2023-12-04T12:04:34;19.50;50.60
2929;DHT22;1474;51.460;7.150;2023-12-04T12:07:00;19.50;50.40
2929;DHT22;1474;51.460;7.150;2023-12-04T12:09:34;19.60;50.50
2929;DHT22;1474;51.460;7.150;2023-12-04T12:12:01;19.60;50.40
2929;DHT22;1474;51.460;7.150;2023-12-04T12:14:31;19.60;50.20
2929;DHT22;1474;51.460;7.150;2023-12-04T12:17:00;19.70;50.30
2929;DHT22;1474;51.460;7.150;2023-12-04T12:19:26;19.70;50.70
2929;DHT22;1474;51.460;7.150;2023-12-04T12:21:53;19.70;50.20
2929;DHT22;1474;51.460;7.150;2023-12-04T12:24:18;19.80;50.10
2929;DHT22;1474;51.460;7.150;2023-12-04T12:26:44;19.80;50.10
2929;DHT22;1474;51.460;7.150;2023-12-04T12:29:13;19.80;50.10
2929;DHT22;1474;51.460;7.150;2023-12-04T12:31:39;19.80;50.00
2929;DHT22;1474;51.460;7.150;2023-12-04T12:34:05;19.80;49.90
2929;DHT22;1474;51.460;7.150;2023-12-04T12:36:31;19.90;50.60
2929;DHT22;1474;51.460;7.150;2023-12-04T12:39:01;19.90;49.90
2929;DHT22;1474;51.460;7.150;2023-12-04T12:41:29;19.90;50.00
2929;DHT22;1474;51.460;7.150;2023-12-04T12:43:55;19.90;49.70
2929;DHT22;1474;51.460;7.150;2023-12-04T12:46:22;19.90;49.90
2929;DHT22;1474;51.460;7.150;2023-12-04T12:48:48;20.00;50.10
2929;DHT22;1474;51.460;7.150;2023-12-04T12:51:13;20.00;50.10
2929;DHT22;1474;51.460;7.150;2023-12-04T12:53:40;20.00;50.10
2929;DHT22;1474;51.460;7.150;2023-12-04T12:56:06;20.00;50.10
2929;DHT22;1474;51.460;7.150;2023-12-04T12:58:33;20.00;50.10
2929;DHT22;1474;51.460;7.150;2023-12-04T13:01:00;20.00;50.10
2929;DHT22;1474;51.460;7.150;2023-12-04T13:03:27;20.10;50.10
2929;DHT22;1474;51.460;7.150;2023-12-04T13:05:53;20.10;50.20
2929;DHT22;1474;51.460;7.150;2023-12-04T13:08:19;20.20;50.20
2929;DHT22;1474;51.460;7.150;2023-12-04T13:10:45;20.10;50.20
2929;DHT22;1474;51.460;7.150;2023-12-04T13:13:14;20.20;50.30
2929;DHT22;1474;51.460;7.150;2023-12-04T13:15:40;20.20;50.30
2929;DHT22;1474;51.460;7.150;2023-12-04T13:18:07;20.20;50.40
2929;DHT22;1474;51.460;7.150;2023-12-04T13:20:33;20.20;50.30
2929;DHT22;1474;51.460;7.150;2023-12-04T13:23:02;20.20;50.40
2929;DHT22;1474;51.460;7.150;2023-12-04T13:25:28;20.30;50.40
2929;DHT22;1474;51.460;7.150;2023-12-04T13:27:54;20.20;50.30
2929;DHT22;1474;51.460;7.150;2023-12-04T13:30:20;20.30;50.40
2929;DHT22;1474;51.460;7.150;2023-12-04T13:32:46;20.30;50.60
2929;DHT22;1474;51.460;7.150;2023-12-04T13:35:11;20.30;50.50
2929;DHT22;1474;51.460;7.150;2023-12-04T13:37:38;20.40;50.30
2929;DHT22;1474;51.460;7.150;2023-12-04T13:40:05;20.40;50.40
2929;DHT22;1474;51.460;7.150;2023-12-04T13:42:33;20.40;50.30
2929;DHT22;1474;51.460;7.150;2023-12-04T13:45:18;20.40;50.20
2929;DHT22;1474;51.460;7.150;2023-12-04T13:47:47;20.40;50.20
2929;DHT22;1474;51.460;7.150;2023-12-04T13:50:14;20.50;50.20
2929;DHT22;1474;51.460;7.150;2023-12-04T13:52:40;20.50;50.60
2929;DHT22;1474;51.460;7.150;2023-12-04T13:55:08;20.50;50.20
2929;DHT22;1474;51.460;7.150;2023-12-04T13:57:45;20.50;50.00
2929;DHT22;1474;51.460;7.150;2023-12-04T14:00:21;20.60;50.20
2929;DHT22;1474;51.460;7.150;2023-12-04T14:02:47;20.60;50.20
2929;DHT22;1474;51.460;7.150;2023-12-04T14:05:13;20.60;50.30
2929;DHT22;1474;51.460;7.150;2023-12-04T14:07:41;20.60;50.30
2929;DHT22;1474;51.460;7.150;2023-12-04T14:10:09;20.60;50.30
2929;DHT22;1474;51.460;7.150;2023-12-04T14:12:35;20.60;50.40
2929;DHT22;1474;51.460;7.150;2023-12-04T14:15:02;20.60;50.40
2929;DHT22;1474;51.460;7.150;2023-12-04T14:17:28;20.70;50.40
2929;DHT22;1474;51.460;7.150;2023-12-04T14:19:54;20.70;50.30
2929;DHT22;1474;51.460;7.150;2023-12-04T14:22:20;20.70;50.40
2929;DHT22;1474;51.460;7.150;2023-12-04T14:24:46;20.70;50.30
2929;DHT22;1474;51.460;7.150;2023-12-04T14:27:11;20.80;50.40
2929;DHT22;1474;51.460;7.150;2023-12-04T14:29:38;20.80;50.40
2929;DHT22;1474;51.460;7.150;2023-12-04T14:32:05;20.80;50.40
2929;DHT22;1474;51.460;7.150;2023-12-04T14:34:31;20.70;50.50
2929;DHT22;1474;51.460;7.150;2023-12-04T14:36:58;20.70;50.50
2929;DHT22;1474;51.460;7.150;2023-12-04T14:39:24;20.80;50.40
2929;DHT22;1474;51.460;7.150;2023-12-04T14:41:50;20.80;50.50
2929;DHT22;1474;51.460;7.150;2023-12-04T14:44:16;20.80;50.50
2929;DHT22;1474;51.460;7.150;2023-12-04T14:46:42;20.80;50.50
2929;DHT22;1474;51.460;7.150;2023-12-04T14:49:08;20.80;50.50
2929;DHT22;1474;51.460;7.150;2023-12-04T14:51:33;20.80;50.50
2929;DHT22;1474;51.460;7.150;2023-12-04T14:53:59;20.90;50.60
2929;DHT22;1474;51.460;7.150;2023-12-04T14:56:46;20.90;50.50
2929;DHT22;1474;51.460;7.150;2023-12-04T14:59:41;20.90;50.60
2929;DHT22;1474;51.460;7.150;2023-12-04T15:02:07;20.90;50.60
2929;DHT22;1474;51.460;7.150;2023-12-04T15:04:51;20.90;50.60
2929;DHT22;1474;51.460;7.150;2023-12-04T15:07:43;21.00;50.70
2929;DHT22;1474;51.460;7.150;2023-12-04T15:10:34;20.90;50.60
2929;DHT22;1474;51.460;7.150;2023-12-04T15:13:03;20.90;50.60
2929;DHT22;1474;51.460;7.150;2023-12-04T15:15:51;21.00;50.70
2929;DHT22;1474;51.460;7.150;2023-12-04T15:18:36;21.00;50.70
2929;DHT22;1474;51.460;7.150;2023-12-04T15:21:08;21.00;50.70
2929;DHT22;1474;51.460;7.150;2023-12-04T15:23:34;21.00;50.60
2929;DHT22;1474;51.460;7.150;2023-12-04T15:26:00;21.00;50.60
2929;DHT22;1474;51.460;7.150;2023-12-04T15:28:27;21.10;50.70
2929;DHT22;1474;51.460;7.150;2023-12-04T15:30:53;21.00;50.70
2929;DHT22;1474;51.460;7.150;2023-12-04T15:33:21;21.10;50.70
2929;DHT22;1474;51.460;7.150;2023-12-04T15:35:51;21.10;50.50
2929;DHT22;1474;51.460;7.150;2023-12-04T15:38:18;21.10;50.60
2929;DHT22;1474;51.460;7.150;2023-12-04T15:40:44;21.10;50.60
2929;DHT22;1474;51.460;7.150;2023-12-04T15:43:10;21.10;50.60
2929;DHT22;1474;51.460;7.150;2023-12-04T15:45:36;21.10;50.70
2929;DHT22;1474;51.460;7.150;2023-12-04T15:48:02;21.10;50.70
2929;DHT22;1474;51.460;7.150;2023-12-04T15:50:28;21.10;50.70
2929;DHT22;1474;51.460;7.150;2023-12-04T15:52:54;21.10;50.70
2929;DHT22;1474;51.460;7.150;2023-12-04T15:55:21;21.20;50.70
2929;DHT22;1474;51.460;7.150;2023-12-04T15:57:48;21.20;50.80
2929;DHT22;1474;51.460;7.150;2023-12-04T16:00:20;21.20;50.70
2929;DHT22;1474;51.460;7.150;2023-12-04T16:02:47;21.20;50.70
2929;DHT22;1474;51.460;7.150;2023-12-04T16:05:13;21.30;50.80
2929;DHT22;1474;51.460;7.150;2023-12-04T16:07:39;21.30;50.70
2929;DHT22;1474;51.460;7.150;2023-12-04T16:10:06;21.30;50.70
2929;DHT22;1474;51.460;7.150;2023-12-04T16:12:33;21.30;50.70
2929;DHT22;1474;51.460;7.150;2023-12-04T16:15:00;21.30;50.70
2929;DHT22;1474;51.460;7.150;2023-12-04T16:17:25;21.30;50.00